createdAt,value
2018-07-03T00:00:07.663Z,99835.83
2018-07-03T00:02:37.379Z,99845.77
2018-07-03T00:05:07.034Z,99846.05
2018-07-03T00:07:37.366Z,99844.06
2018-07-03T00:10:08.706Z,99845.52
2018-07-03T00:12:38.594Z,99840.01
2018-07-03T00:15:08.632Z,99835.68
2018-07-03T00:17:38.050Z,99836.45
2018-07-03T00:20:08.938Z,99831.84
2018-07-03T00:22:38.610Z,99836.22
2018-07-03T00:25:08.308Z,99838.91
2018-07-03T00:27:37.722Z,99837.52
2018-07-03T00:30:07.227Z,99841.80
2018-07-03T00:32:36.633Z,99842.66
2018-07-03T00:35:06.378Z,99839.78
2018-07-03T00:37:36.253Z,99835.94
2018-07-03T00:40:06.147Z,99843.38
2018-07-03T00:42:36.089Z,99846.86
2018-07-03T00:45:06.442Z,99844.91
2018-07-03T00:47:36.273Z,99848.45
2018-07-03T00:50:05.974Z,99849.23
2018-07-03T00:52:35.630Z,99848.37
2018-07-03T00:55:05.298Z,99848.09
2018-07-03T00:57:35.022Z,99847.97
2018-07-03T01:00:15.983Z,99846.73
2018-07-03T01:02:45.442Z,99849.78
2018-07-03T01:05:15.139Z,99849.98
2018-07-03T01:07:44.824Z,99845.48
2018-07-03T01:10:14.221Z,99844.39
2018-07-03T01:12:43.611Z,99840.30
2018-07-03T01:15:13.310Z,99836.89
2018-07-03T01:17:43.262Z,99837.42
2018-07-03T01:20:13.395Z,99843.14
2018-07-03T01:22:43.161Z,99835.36
2018-07-03T01:25:12.905Z,99840.78
2018-07-03T01:27:42.538Z,99837.60
2018-07-03T01:30:12.298Z,99836.91
2018-07-03T01:32:42.237Z,99835.38
2018-07-03T01:35:12.099Z,99837.49
2018-07-03T01:37:42.286Z,99841.73
2018-07-03T01:40:12.441Z,99842.30
2018-07-03T01:42:42.377Z,99842.79
2018-07-03T01:45:12.564Z,99841.33
2018-07-03T01:47:42.755Z,99838.06
2018-07-03T01:50:12.952Z,99837.16
2018-07-03T01:52:43.101Z,99834.10
2018-07-03T01:55:14.113Z,99831.84
2018-07-03T01:57:44.069Z,99837.06
2018-07-03T02:00:14.230Z,99833.13
2018-07-03T02:02:44.200Z,99832.30
2018-07-03T02:05:14.560Z,99834.54
2018-07-03T02:07:44.740Z,99828.84
2018-07-03T02:10:14.680Z,99837.03
2018-07-03T02:12:44.971Z,99826.04
2018-07-03T02:15:15.225Z,99835.98
2018-07-03T02:17:45.405Z,99833.94
2018-07-03T02:20:15.642Z,99839.02
2018-07-03T02:22:45.814Z,99838.00
2018-07-03T02:25:15.994Z,99838.32
2018-07-03T02:27:46.145Z,99836.73
2018-07-03T02:30:16.364Z,99832.48
2018-07-03T02:32:46.605Z,99832.10
2018-07-03T02:35:16.777Z,99838.53
2018-07-03T02:37:46.953Z,99842.69
2018-07-03T02:40:17.189Z,99838.14
2018-07-03T02:42:47.373Z,99835.05
2018-07-03T02:45:17.574Z,99841.13
2018-07-03T02:47:47.705Z,99839.14
2018-07-03T02:50:17.998Z,99837.28
2018-07-03T02:52:48.231Z,99840.41
2018-07-03T02:55:18.416Z,99842.70
2018-07-03T02:57:48.673Z,99841.83
2018-07-03T03:00:18.849Z,99846.95
2018-07-03T03:02:48.997Z,99841.89
2018-07-03T03:05:19.209Z,99848.75
2018-07-03T03:07:49.417Z,99842.11
2018-07-03T03:10:19.601Z,99851.73
2018-07-03T03:12:49.850Z,99846.78
2018-07-03T03:15:20.181Z,99841.91
2018-07-03T03:17:50.098Z,99841.59
2018-07-03T03:20:20.260Z,99841.48
2018-07-03T03:22:50.445Z,99835.64
2018-07-03T03:25:20.593Z,99844.38
2018-07-03T03:27:50.812Z,99844.92
2018-07-03T03:30:21.061Z,99844.60
2018-07-03T03:32:51.244Z,99837.14
2018-07-03T03:35:21.433Z,99840.20
2018-07-03T03:37:51.584Z,99840.73
2018-07-03T03:40:21.806Z,99841.94
2018-07-03T03:42:51.972Z,99845.78
2018-07-03T03:45:22.172Z,99847.84
2018-07-03T03:47:52.113Z,99843.04
2018-07-03T03:50:22.306Z,99847.44
2018-07-03T03:52:52.462Z,99849.00
2018-07-03T03:55:22.616Z,99848.65
2018-07-03T03:57:52.811Z,99851.06
2018-07-03T04:00:23.002Z,99854.86
2018-07-03T04:02:54.264Z,99857.23
2018-07-03T04:05:24.766Z,99855.10
2018-07-03T04:07:55.328Z,99857.66
2018-07-03T04:10:25.766Z,99861.42
2018-07-03T04:12:56.261Z,99860.20
2018-07-03T04:15:26.757Z,99861.27
2018-07-03T04:17:57.361Z,99854.23
2018-07-03T04:20:27.529Z,99856.37
2018-07-03T04:22:57.690Z,99863.68
2018-07-03T04:25:27.849Z,99855.92
2018-07-03T04:27:58.017Z,99856.42
2018-07-03T04:30:28.206Z,99856.19
2018-07-03T04:32:58.345Z,99861.33
2018-07-03T04:35:28.525Z,99854.56
2018-07-03T04:37:58.686Z,99865.65
2018-07-03T04:40:28.840Z,99862.38
2018-07-03T04:42:59.029Z,99863.74
2018-07-03T04:45:29.281Z,99865.31
2018-07-03T04:47:59.474Z,99860.12
2018-07-03T04:50:29.695Z,99868.69
2018-07-03T04:52:59.657Z,99870.13
2018-07-03T04:55:29.823Z,99870.79
2018-07-03T04:58:00.373Z,99867.05
2018-07-03T05:00:31.003Z,99872.27
2018-07-03T05:03:01.525Z,99875.27
2018-07-03T05:05:31.758Z,99879.59
2018-07-03T05:08:01.905Z,99877.95
2018-07-03T05:10:32.113Z,99877.94
2018-07-03T05:13:02.901Z,99878.14
2018-07-03T05:15:33.716Z,99880.58
2018-07-03T05:18:04.470Z,99880.80
2018-07-03T05:20:35.201Z,99883.45
2018-07-03T05:23:05.985Z,99882.19
2018-07-03T05:25:36.733Z,99889.84
2018-07-03T05:28:07.627Z,99889.45
2018-07-03T05:30:38.373Z,99889.67
2018-07-03T05:33:09.132Z,99888.66
2018-07-03T05:35:39.892Z,99889.00
2018-07-03T05:38:10.782Z,99887.70
2018-07-03T05:40:41.549Z,99900.24
2018-07-03T05:43:12.358Z,99904.39
2018-07-03T05:45:43.142Z,99901.50
2018-07-03T05:48:14.054Z,99899.46
2018-07-03T05:50:44.793Z,99899.57
2018-07-03T05:53:15.615Z,99896.97
2018-07-03T05:55:46.409Z,99910.52
2018-07-03T05:58:17.305Z,99909.43
2018-07-03T06:00:48.081Z,99907.59
2018-07-03T06:03:18.720Z,99901.47
2018-07-03T06:05:49.061Z,99910.75
2018-07-03T06:08:19.369Z,99913.25
2018-07-03T06:10:49.963Z,99911.56
2018-07-03T06:13:21.102Z,99914.09
2018-07-03T06:16:03.653Z,99910.86
2018-07-03T06:18:52.389Z,99919.23
2018-07-03T06:21:29.049Z,99919.46
2018-07-03T06:23:59.669Z,99918.13
2018-07-03T06:26:30.121Z,99917.81
2018-07-03T06:29:00.947Z,99916.87
2018-07-03T06:31:31.562Z,99914.28
2018-07-03T06:34:02.042Z,99929.12
2018-07-03T06:36:32.752Z,99927.04
2018-07-03T06:39:03.445Z,99925.41
2018-07-03T06:41:33.668Z,99919.09
2018-07-03T06:44:04.188Z,99920.23
2018-07-03T06:46:35.096Z,99911.41
2018-07-03T06:49:05.677Z,99915.88
2018-07-03T06:51:36.178Z,99917.87
2018-07-03T06:54:06.986Z,99914.52
2018-07-03T06:56:37.491Z,99912.01
2018-07-03T06:59:08.015Z,99907.11
2018-07-03T07:01:38.501Z,99907.80
2018-07-03T07:04:09.106Z,99904.88
2018-07-03T07:06:39.556Z,99906.03
2018-07-03T07:09:10.813Z,99903.34
2018-07-03T07:11:41.205Z,99903.30
2018-07-03T07:14:11.715Z,99904.82
2018-07-03T07:16:42.179Z,99908.77
2018-07-03T07:19:12.682Z,99905.55
2018-07-03T07:21:43.237Z,99901.98
2018-07-03T07:24:14.061Z,99903.20
2018-07-03T07:26:44.357Z,99900.27
2018-07-03T07:29:14.927Z,99897.31
2018-07-03T07:31:46.533Z,99896.44
2018-07-03T07:34:16.851Z,99891.34
2018-07-03T07:36:47.314Z,99893.52
2018-07-03T07:39:17.829Z,99898.14
2018-07-03T07:41:48.305Z,99895.27
2018-07-03T07:44:18.789Z,99896.89
2018-07-03T07:46:49.258Z,99891.64
2018-07-03T07:49:19.773Z,99886.84
2018-07-03T07:51:50.611Z,99887.66
2018-07-03T07:54:22.885Z,99897.77
2018-07-03T07:56:53.377Z,99888.33
2018-07-03T07:59:24.473Z,99885.30
2018-07-03T08:01:55.035Z,99889.64
2018-07-03T08:04:25.535Z,99886.77
2018-07-03T08:06:55.990Z,99887.63
2018-07-03T08:09:26.532Z,99884.93
2018-07-03T08:11:56.977Z,99895.63
2018-07-03T08:14:27.489Z,99885.17
2018-07-03T08:16:57.937Z,99890.52
2018-07-03T08:19:28.441Z,99886.78
2018-07-03T08:21:58.982Z,99889.35
2018-07-03T08:24:29.461Z,99885.02
2018-07-03T08:26:59.909Z,99889.98
2018-07-03T08:29:30.418Z,99889.88
2018-07-03T08:32:00.901Z,99883.52
2018-07-03T08:34:31.414Z,99886.10
2018-07-03T08:37:01.887Z,99881.28
2018-07-03T08:39:32.426Z,99869.82
2018-07-03T08:42:02.913Z,99873.74
2018-07-03T08:44:34.193Z,99878.70
2018-07-03T08:47:04.644Z,99878.70
2018-07-03T08:49:35.176Z,99870.05
2018-07-03T08:52:05.700Z,99876.22
2018-07-03T08:54:36.211Z,99873.42
2018-07-03T08:57:06.750Z,99871.46
2018-07-03T08:59:37.254Z,99866.56
2018-07-03T09:02:08.186Z,99872.97
2018-07-03T09:04:38.262Z,99865.63
2018-07-03T09:07:08.986Z,99870.13
2018-07-03T09:09:39.497Z,99868.05
2018-07-03T09:12:10.006Z,99861.30
2018-07-03T09:14:40.813Z,99864.33
2018-07-03T09:17:16.484Z,99863.95
2018-07-03T09:19:46.981Z,99853.32
2018-07-03T09:22:17.602Z,99849.25
2018-07-03T09:24:48.113Z,99850.79
2018-07-03T09:27:18.560Z,99850.03
2018-07-03T09:29:49.068Z,99838.12
2018-07-03T09:32:19.529Z,99845.14
2018-07-03T09:34:50.093Z,99833.92
2018-07-03T09:37:20.655Z,99849.25
2018-07-03T09:39:51.157Z,99845.91
2018-07-03T09:42:21.788Z,99841.36
2018-07-03T09:44:52.310Z,99841.90
2018-07-03T09:47:23.389Z,99833.58
2018-07-03T09:49:54.233Z,99842.52
2018-07-03T09:52:24.688Z,99834.84
2018-07-03T09:54:55.492Z,99839.38
2018-07-03T09:57:26.530Z,99838.61
2018-07-03T09:59:57.368Z,99833.52
2018-07-03T10:02:28.179Z,99833.80
2018-07-03T10:04:59.010Z,99839.19
2018-07-03T10:07:29.813Z,99837.05
2018-07-03T10:10:00.629Z,99828.47
2018-07-03T10:12:31.434Z,99828.73
2018-07-03T10:15:02.251Z,99830.67
2018-07-03T10:17:33.223Z,99830.77
2018-07-03T10:20:04.168Z,99825.46
2018-07-03T10:22:35.104Z,99819.66
2018-07-03T10:25:06.021Z,99821.82
2018-07-03T10:27:36.911Z,99821.15
2018-07-03T10:30:07.976Z,99820.95
2018-07-03T10:32:38.919Z,99819.03
2018-07-03T10:35:09.749Z,99810.41
2018-07-03T10:37:40.565Z,99821.09
2018-07-03T10:40:11.277Z,99824.20
2018-07-03T10:42:42.381Z,99816.94
2018-07-03T10:45:13.882Z,99812.46
2018-07-03T10:47:45.451Z,99807.28
2018-07-03T10:50:17.028Z,99817.17
2018-07-03T10:52:48.276Z,99820.26
2018-07-03T10:55:19.293Z,99817.94
2018-07-03T10:57:50.185Z,99818.01
2018-07-03T11:00:21.043Z,99805.92
2018-07-03T11:02:51.918Z,99803.72
2018-07-03T11:05:22.858Z,99811.25
2018-07-03T11:07:54.121Z,99810.77
2018-07-03T11:10:24.949Z,99800.47
2018-07-03T11:12:55.776Z,99796.97
2018-07-03T11:15:26.657Z,99798.56
2018-07-03T11:17:57.565Z,99791.94
2018-07-03T11:20:28.221Z,99792.36
2018-07-03T11:22:59.085Z,99789.71
2018-07-03T11:25:29.954Z,99796.28
2018-07-03T11:28:00.820Z,99796.80
2018-07-03T11:30:31.657Z,99798.27
2018-07-03T11:33:02.571Z,99797.78
2018-07-03T11:35:33.418Z,99796.41
2018-07-03T11:38:04.330Z,99789.50
2018-07-03T11:40:35.227Z,99795.78
2018-07-03T11:43:06.081Z,99794.17
2018-07-03T11:45:36.967Z,99797.95
2018-07-03T11:48:07.846Z,99796.30
2018-07-03T11:50:38.575Z,99793.15
2018-07-03T11:53:09.356Z,99789.69
2018-07-03T11:55:40.183Z,99791.20
2018-07-03T11:58:10.962Z,99788.43
2018-07-03T12:00:41.826Z,99787.80
2018-07-03T12:03:12.610Z,99782.50
2018-07-03T12:05:43.434Z,99783.76
2018-07-03T12:08:14.629Z,99781.65
2018-07-03T12:10:45.517Z,99773.10
2018-07-03T12:13:17.030Z,99766.20
2018-07-03T12:15:47.885Z,99769.33
2018-07-03T12:18:23.677Z,99773.17
2018-07-03T12:20:54.581Z,99769.99
2018-07-03T12:23:25.440Z,99768.45
2018-07-03T12:25:56.269Z,99770.70
2018-07-03T12:28:27.093Z,99768.08
2018-07-03T12:30:57.905Z,99760.80
2018-07-03T12:33:28.452Z,99759.94
2018-07-03T12:35:59.293Z,99769.16
2018-07-03T12:38:30.132Z,99770.16
2018-07-03T12:41:00.965Z,99772.48
2018-07-03T12:43:31.849Z,99767.44
2018-07-03T12:46:02.666Z,99758.30
2018-07-03T12:48:33.492Z,99760.00
2018-07-03T12:51:04.540Z,99757.80
2018-07-03T12:53:35.419Z,99760.30
2018-07-03T12:56:06.275Z,99766.20
2018-07-03T12:58:37.075Z,99762.54
2018-07-03T13:01:07.999Z,99757.08
2018-07-03T13:03:38.942Z,99761.84
2018-07-03T13:06:09.869Z,99751.12
2018-07-03T13:08:40.689Z,99753.44
2018-07-03T13:11:11.493Z,99750.59
2018-07-03T13:13:42.265Z,99747.22
2018-07-03T13:16:13.227Z,99742.01
2018-07-03T13:18:44.687Z,99755.85
2018-07-03T13:21:16.279Z,99753.32
2018-07-03T13:23:59.592Z,99756.61
2018-07-03T13:26:48.525Z,99753.94
2018-07-03T13:29:20.513Z,99755.47
2018-07-03T13:31:51.372Z,99750.31
2018-07-03T13:34:22.177Z,99751.45
2018-07-03T13:36:53.003Z,99755.14
2018-07-03T13:39:23.780Z,99745.42
2018-07-03T13:41:54.609Z,99749.41
2018-07-03T13:44:25.386Z,99752.12
2018-07-03T13:46:56.229Z,99749.50
2018-07-03T13:49:27.000Z,99749.54
2018-07-03T13:51:57.797Z,99750.25
2018-07-03T13:54:28.553Z,99749.87
2018-07-03T13:56:59.434Z,99742.20
2018-07-03T13:59:30.251Z,99743.00
2018-07-03T14:02:01.030Z,99743.61
2018-07-03T14:04:31.828Z,99742.77
2018-07-03T14:07:02.673Z,99746.48
2018-07-03T14:09:33.514Z,99740.88
2018-07-03T14:12:04.356Z,99732.41
2018-07-03T14:14:35.213Z,99734.69
2018-07-03T14:17:06.956Z,99735.18
2018-07-03T14:19:37.706Z,99738.02
2018-07-03T14:22:08.631Z,99732.63
2018-07-03T14:24:39.417Z,99735.41
2018-07-03T14:27:10.281Z,99731.09
2018-07-03T14:29:41.078Z,99734.08
2018-07-03T14:32:11.982Z,99729.72
2018-07-03T14:34:42.967Z,99733.61
2018-07-03T14:37:14.196Z,99726.34
2018-07-03T14:39:45.507Z,99727.17
2018-07-03T14:42:16.373Z,99721.75
2018-07-03T14:44:47.153Z,99728.55
2018-07-03T14:47:17.962Z,99730.88
2018-07-03T14:49:48.784Z,99727.09
2018-07-03T14:52:19.376Z,99727.42
2018-07-03T14:54:50.561Z,99731.38
2018-07-03T14:57:21.381Z,99730.11
2018-07-03T14:59:52.205Z,99725.44
2018-07-03T15:02:22.801Z,99720.94
2018-07-03T15:04:53.575Z,99728.75
2018-07-03T15:07:24.366Z,99726.15
2018-07-03T15:09:56.077Z,99736.02
2018-07-03T15:12:26.654Z,99729.46
2018-07-03T15:14:57.247Z,99738.84
2018-07-03T15:17:28.156Z,99734.48
2018-07-03T15:19:59.965Z,99735.14
2018-07-03T15:22:30.550Z,99730.31
2018-07-03T15:25:01.098Z,99732.08
2018-07-03T15:27:31.785Z,99729.87
2018-07-03T15:30:02.384Z,99728.34
2018-07-03T15:32:32.984Z,99721.24
2018-07-03T15:35:03.821Z,99721.24
2018-07-03T15:37:34.601Z,99719.78
2018-07-03T15:40:05.479Z,99723.33
2018-07-03T15:42:36.278Z,99726.55
2018-07-03T15:45:09.808Z,99729.95
2018-07-03T15:47:40.486Z,99726.17
2018-07-03T15:50:12.213Z,99725.18
2018-07-03T15:52:43.026Z,99729.30
2018-07-03T15:55:13.813Z,99728.58
2018-07-03T15:57:44.525Z,99723.18
2018-07-03T16:00:15.965Z,99721.16
2018-07-03T16:04:57.356Z,99719.30
2018-07-03T16:07:39.020Z,99723.80
2018-07-03T16:10:09.901Z,99719.11
2018-07-03T16:12:40.750Z,99716.54
2018-07-03T16:15:12.017Z,99716.03
2018-07-03T16:17:43.244Z,99721.27
2018-07-03T16:20:19.417Z,99714.41
2018-07-03T16:22:50.678Z,99712.98
2018-07-03T16:25:21.667Z,99708.14
2018-07-03T16:27:52.977Z,99714.03
2018-07-03T16:30:24.209Z,99711.45
2018-07-03T16:32:55.125Z,99709.36
2018-07-03T16:35:26.292Z,99718.44
2018-07-03T16:37:57.398Z,99713.84
2018-07-03T16:40:28.273Z,99711.30
2018-07-03T16:42:59.153Z,99719.48
2018-07-03T16:45:29.996Z,99723.80
2018-07-03T16:48:00.788Z,99719.36
2018-07-03T16:50:31.373Z,99719.84
2018-07-03T16:53:02.228Z,99720.22
2018-07-03T16:55:33.025Z,99717.71
2018-07-03T16:58:03.556Z,99718.56
2018-07-03T17:00:34.368Z,99718.16
2018-07-03T17:03:05.018Z,99726.05
2018-07-03T17:05:35.856Z,99724.77
2018-07-03T17:08:06.846Z,99716.63
2018-07-03T17:10:37.800Z,99727.05
2018-07-03T17:13:08.369Z,99724.95
2018-07-03T17:15:39.181Z,99724.13
2018-07-03T17:18:09.741Z,99727.93
2018-07-03T17:20:40.666Z,99725.13
2018-07-03T17:23:11.680Z,99727.48
2018-07-03T17:25:42.722Z,99718.30
2018-07-03T17:28:13.698Z,99723.66
2018-07-03T17:30:44.551Z,99726.02
2018-07-03T17:33:15.355Z,99720.13
2018-07-03T17:35:46.300Z,99725.77
2018-07-03T17:38:17.096Z,99722.73
2018-07-03T17:40:59.001Z,99727.13
2018-07-03T17:44:14.038Z,99723.12
2018-07-03T17:46:45.581Z,99720.05
2018-07-03T17:49:16.393Z,99722.14
2018-07-03T17:51:47.233Z,99725.86
2018-07-03T17:54:18.650Z,99719.89
2018-07-03T17:56:49.521Z,99719.50
2018-07-03T17:59:20.397Z,99721.88
2018-07-03T18:01:50.828Z,99724.14
2018-07-03T18:04:21.364Z,99722.21
2018-07-03T18:06:51.625Z,99717.77
2018-07-03T18:09:22.409Z,99718.69
2018-07-03T18:11:53.330Z,99716.19
2018-07-03T18:14:24.101Z,99719.90
2018-07-03T18:16:54.576Z,99723.05
2018-07-03T18:19:30.449Z,99724.05
2018-07-03T18:22:00.458Z,99721.23
2018-07-03T18:24:30.636Z,99722.14
2018-07-03T18:27:00.885Z,99718.23
2018-07-03T18:29:31.188Z,99715.80
2018-07-03T18:32:01.371Z,99721.16
2018-07-03T18:34:31.441Z,99715.99
2018-07-03T18:37:01.938Z,99717.75
2018-07-03T18:39:32.210Z,99716.86
2018-07-03T18:42:02.484Z,99722.44
2018-07-03T18:44:32.761Z,99719.06
2018-07-03T18:47:02.959Z,99727.05
2018-07-03T18:49:33.186Z,99724.95
2018-07-03T18:52:03.401Z,99729.72
2018-07-03T18:54:33.575Z,99732.28
2018-07-03T18:57:03.813Z,99732.95
2018-07-03T18:59:34.038Z,99733.81
2018-07-03T19:02:04.598Z,99739.61
2018-07-03T19:04:34.802Z,99736.47
2018-07-03T19:07:05.091Z,99740.06
2018-07-03T19:09:35.288Z,99740.43
2018-07-03T19:12:05.864Z,99743.19
2018-07-03T19:14:36.119Z,99743.77
2018-07-03T19:17:06.335Z,99752.75
2018-07-03T19:19:36.532Z,99748.11
2018-07-03T19:22:06.810Z,99748.66
2018-07-03T19:24:36.997Z,99754.16
2018-07-03T19:27:07.213Z,99756.38
2018-07-03T19:29:37.388Z,99758.03
2018-07-03T19:32:07.920Z,99756.16
2018-07-03T19:34:38.085Z,99763.51
2018-07-03T19:37:08.302Z,99759.95
2018-07-03T19:39:38.554Z,99758.32
2018-07-03T19:42:09.092Z,99756.70
2018-07-03T19:44:39.206Z,99756.39
2018-07-03T19:47:09.381Z,99762.08
2018-07-03T19:49:39.593Z,99756.64
2018-07-03T19:52:09.759Z,99757.67
2018-07-03T19:54:39.949Z,99759.01
2018-07-03T19:57:10.109Z,99759.76
2018-07-03T19:59:40.281Z,99761.89
2018-07-03T20:02:10.532Z,99764.83
2018-07-03T20:04:40.981Z,99765.88
2018-07-03T20:07:11.177Z,99760.70
2018-07-03T20:09:41.407Z,99762.31
2018-07-03T20:12:11.596Z,99764.97
2018-07-03T20:14:41.767Z,99762.21
2018-07-03T20:17:11.947Z,99765.14
2018-07-03T20:19:42.163Z,99760.77
2018-07-03T20:22:12.312Z,99758.86
2018-07-03T20:24:42.488Z,99761.02
2018-07-03T20:27:12.641Z,99759.08
2018-07-03T20:29:42.896Z,99762.81
2018-07-03T20:32:13.039Z,99756.58
2018-07-03T20:34:43.184Z,99754.16
2018-07-03T20:37:13.376Z,99758.55
2018-07-03T20:39:43.255Z,99757.02
2018-07-03T20:42:13.226Z,99752.75
2018-07-03T20:44:43.190Z,99751.98
2018-07-03T20:47:13.475Z,99761.14
2018-07-03T20:49:43.702Z,99762.44
2018-07-03T20:52:14.092Z,99755.61
2018-07-03T20:54:44.078Z,99757.23
2018-07-03T20:57:14.341Z,99759.35
2018-07-03T20:59:44.724Z,99761.77
2018-07-03T21:02:15.165Z,99763.34
2018-07-03T21:04:45.346Z,99765.15
2018-07-03T21:07:15.538Z,99762.69
2018-07-03T21:09:45.712Z,99764.23
2018-07-03T21:12:15.865Z,99768.65
2018-07-03T21:14:46.076Z,99770.89
2018-07-03T21:17:16.866Z,99773.43
2018-07-03T21:19:47.080Z,99779.28
2018-07-03T21:22:17.405Z,99779.22
2018-07-03T21:24:47.612Z,99781.19
2018-07-03T21:27:17.822Z,99782.88
2018-07-03T21:29:48.101Z,99780.83
2018-07-03T21:32:18.256Z,99783.88
2018-07-03T21:34:48.413Z,99780.73
2018-07-03T21:37:18.628Z,99784.92
2018-07-03T21:39:48.793Z,99788.34
2018-07-03T21:42:19.016Z,99782.98
2018-07-03T21:44:49.185Z,99787.95
2018-07-03T21:47:19.345Z,99785.09
2018-07-03T21:49:49.635Z,99786.18
2018-07-03T21:52:19.821Z,99782.70
2018-07-03T21:54:50.047Z,99784.84
2018-07-03T21:57:20.249Z,99782.62
2018-07-03T21:59:50.430Z,99779.70
2018-07-03T22:02:20.618Z,99776.76
2018-07-03T22:04:50.601Z,99780.94
2018-07-03T22:07:20.865Z,99779.14
2018-07-03T22:09:51.093Z,99778.58
2018-07-03T22:12:21.289Z,99779.83
2018-07-03T22:14:51.461Z,99779.08
2018-07-03T22:17:21.409Z,99789.55
2018-07-03T22:19:51.626Z,99783.21
2018-07-03T22:22:21.788Z,99785.02
2018-07-03T22:24:51.986Z,99786.73
2018-07-03T22:27:22.265Z,99783.34
2018-07-03T22:29:53.348Z,99783.44
2018-07-03T22:32:23.557Z,99779.39
2018-07-03T22:34:53.762Z,99790.66
2018-07-03T22:37:23.926Z,99784.34
2018-07-03T22:39:54.098Z,99786.08
2018-07-03T22:42:24.305Z,99780.78
2018-07-03T22:44:54.517Z,99779.33
2018-07-03T22:47:24.893Z,99790.29
2018-07-03T22:49:55.117Z,99780.02
2018-07-03T22:52:25.269Z,99780.95
2018-07-03T22:54:55.965Z,99795.69
2018-07-03T22:57:26.249Z,99783.48
2018-07-03T22:59:56.450Z,99790.35
2018-07-03T23:02:26.722Z,99788.55
2018-07-03T23:04:56.708Z,99785.71
2018-07-03T23:07:26.868Z,99794.14
2018-07-03T23:09:57.073Z,99789.11
2018-07-03T23:12:27.289Z,99785.25
2018-07-03T23:14:57.461Z,99791.94
2018-07-03T23:17:27.635Z,99783.78
2018-07-03T23:19:58.045Z,99789.63
2018-07-03T23:22:28.214Z,99785.68
2018-07-03T23:24:58.264Z,99781.00
2018-07-03T23:27:28.440Z,99784.88
2018-07-03T23:29:58.697Z,99776.33
2018-07-03T23:32:28.847Z,99780.52
2018-07-03T23:34:59.008Z,99779.05
2018-07-03T23:37:29.186Z,99779.78
2018-07-03T23:39:59.377Z,99775.22
2018-07-03T23:42:29.558Z,99777.67
2018-07-03T23:44:59.721Z,99776.47
2018-07-03T23:47:40.760Z,99776.88
2018-07-03T23:50:27.505Z,99782.47
2018-07-03T23:53:14.395Z,99779.61
2018-07-03T23:56:01.298Z,99772.82
2018-07-03T23:58:47.965Z,99768.36
